sensor_id;sensor_type;location;lat;lon;timestamp;P1;durP1;ratioP1;P2;durP2;ratioP2
62574;SDS011;53112;45.602;11.904;2023-03-12T00:00:02;8.73;;;5.10;;
62574;SDS011;53112;45.602;11.904;2023-03-12T00:02:32;9.45;;;5.13;;
62574;SDS011;53112;45.602;11.904;2023-03-12T00:07:28;8.93;;;4.97;;
62574;SDS011;53112;45.602;11.904;2023-03-12T00:09:54;7.45;;;4.50;;
62574;SDS011;53112;45.602;11.904;2023-03-12T00:12:20;7.63;;;4.40;;
62574;SDS011;53112;45.602;11.904;2023-03-12T00:14:45;8.20;;;4.60;;
62574;SDS011;53112;45.602;11.904;2023-03-12T00:17:11;6.95;;;4.65;;
62574;SDS011;53112;45.602;11.904;2023-03-12T00:19:37;7.72;;;4.03;;
62574;SDS011;53112;45.602;11.904;2023-03-12T00:22:03;6.60;;;4.20;;
62574;SDS011;53112;45.602;11.904;2023-03-12T00:24:29;6.20;;;4.03;;
62574;SDS011;53112;45.602;11.904;2023-03-12T00:26:55;7.78;;;4.30;;
62574;SDS011;53112;45.602;11.904;2023-03-12T00:29:21;6.97;;;4.30;;
62574;SDS011;53112;45.602;11.904;2023-03-12T00:31:47;8.45;;;4.57;;
62574;SDS011;53112;45.602;11.904;2023-03-12T00:34:15;7.57;;;4.60;;
62574;SDS011;53112;45.602;11.904;2023-03-12T00:36:41;8.60;;;5.20;;
62574;SDS011;53112;45.602;11.904;2023-03-12T00:39:07;7.97;;;5.35;;
62574;SDS011;53112;45.602;11.904;2023-03-12T00:41:34;9.60;;;5.38;;
62574;SDS011;53112;45.602;11.904;2023-03-12T00:44:00;9.65;;;5.63;;
62574;SDS011;53112;45.602;11.904;2023-03-12T00:46:25;10.60;;;6.10;;
62574;SDS011;53112;45.602;11.904;2023-03-12T00:48:51;8.93;;;6.05;;
62574;SDS011;53112;45.602;11.904;2023-03-12T00:51:17;9.35;;;5.82;;
62574;SDS011;53112;45.602;11.904;2023-03-12T00:53:43;10.32;;;6.10;;
62574;SDS011;53112;45.602;11.904;2023-03-12T00:56:09;9.13;;;5.93;;
62574;SDS011;53112;45.602;11.904;2023-03-12T00:58:35;12.88;;;6.68;;
62574;SDS011;53112;45.602;11.904;2023-03-12T01:01:01;10.93;;;6.35;;
62574;SDS011;53112;45.602;11.904;2023-03-12T01:03:27;9.05;;;5.72;;
62574;SDS011;53112;45.602;11.904;2023-03-12T01:05:53;9.52;;;6.10;;
62574;SDS011;53112;45.602;11.904;2023-03-12T01:08:19;10.35;;;6.50;;
62574;SDS011;53112;45.602;11.904;2023-03-12T01:10:45;9.90;;;6.18;;
62574;SDS011;53112;45.602;11.904;2023-03-12T01:13:10;8.05;;;5.82;;
62574;SDS011;53112;45.602;11.904;2023-03-12T01:15:36;8.30;;;5.50;;
62574;SDS011;53112;45.602;11.904;2023-03-12T01:18:02;8.00;;;5.28;;
62574;SDS011;53112;45.602;11.904;2023-03-12T01:20:28;7.35;;;4.97;;
62574;SDS011;53112;45.602;11.904;2023-03-12T01:22:54;7.55;;;4.60;;
62574;SDS011;53112;45.602;11.904;2023-03-12T01:25:20;6.75;;;4.10;;
62574;SDS011;53112;45.602;11.904;2023-03-12T01:27:46;8.02;;;4.40;;
62574;SDS011;53112;45.602;11.904;2023-03-12T01:30:12;7.40;;;4.00;;
62574;SDS011;53112;45.602;11.904;2023-03-12T01:32:38;6.40;;;3.85;;
62574;SDS011;53112;45.602;11.904;2023-03-12T01:35:05;7.97;;;3.80;;
62574;SDS011;53112;45.602;11.904;2023-03-12T01:37:31;5.53;;;3.58;;
62574;SDS011;53112;45.602;11.904;2023-03-12T01:39:58;5.25;;;3.33;;
62574;SDS011;53112;45.602;11.904;2023-03-12T01:42:24;6.10;;;3.25;;
62574;SDS011;53112;45.602;11.904;2023-03-12T01:44:57;4.63;;;3.00;;
62574;SDS011;53112;45.602;11.904;2023-03-12T01:47:25;5.10;;;3.03;;
62574;SDS011;53112;45.602;11.904;2023-03-12T01:49:54;4.68;;;3.20;;
62574;SDS011;53112;45.602;11.904;2023-03-12T01:52:27;4.65;;;3.08;;
62574;SDS011;53112;45.602;11.904;2023-03-12T01:55:03;5.03;;;3.47;;
62574;SDS011;53112;45.602;11.904;2023-03-12T01:57:35;5.63;;;3.40;;
62574;SDS011;53112;45.602;11.904;2023-03-12T02:00:09;7.18;;;3.78;;
62574;SDS011;53112;45.602;11.904;2023-03-12T02:02:44;6.60;;;3.80;;
62574;SDS011;53112;45.602;11.904;2023-03-12T02:05:30;6.50;;;3.20;;
62574;SDS011;53112;45.602;11.904;2023-03-12T02:08:08;5.47;;;3.30;;
62574;SDS011;53112;45.602;11.904;2023-03-12T02:10:38;4.22;;;2.90;;
62574;SDS011;53112;45.602;11.904;2023-03-12T02:13:04;9.43;;;3.08;;
62574;SDS011;53112;45.602;11.904;2023-03-12T02:15:30;4.88;;;3.05;;
62574;SDS011;53112;45.602;11.904;2023-03-12T02:17:59;5.40;;;2.95;;
62574;SDS011;53112;45.602;11.904;2023-03-12T02:24:16;5.72;;;3.15;;
62574;SDS011;53112;45.602;11.904;2023-03-12T02:26:45;5.03;;;3.05;;
62574;SDS011;53112;45.602;11.904;2023-03-12T02:29:12;5.90;;;3.00;;
62574;SDS011;53112;45.602;11.904;2023-03-12T02:31:45;3.95;;;2.90;;
62574;SDS011;53112;45.602;11.904;2023-03-12T02:34:16;5.00;;;2.70;;
62574;SDS011;53112;45.602;11.904;2023-03-12T02:36:41;5.80;;;3.30;;
62574;SDS011;53112;45.602;11.904;2023-03-12T02:39:08;5.03;;;3.00;;
62574;SDS011;53112;45.602;11.904;2023-03-12T02:41:37;3.97;;;2.83;;
62574;SDS011;53112;45.602;11.904;2023-03-12T02:44:12;4.72;;;2.95;;
62574;SDS011;53112;45.602;11.904;2023-03-12T02:46:43;4.13;;;2.90;;
62574;SDS011;53112;45.602;11.904;2023-03-12T02:49:15;5.82;;;3.10;;
62574;SDS011;53112;45.602;11.904;2023-03-12T02:51:42;4.13;;;2.97;;
62574;SDS011;53112;45.602;11.904;2023-03-12T02:54:10;4.55;;;3.00;;
62574;SDS011;53112;45.602;11.904;2023-03-12T02:56:36;4.88;;;3.08;;
62574;SDS011;53112;45.602;11.904;2023-03-12T02:59:03;5.82;;;3.45;;
62574;SDS011;53112;45.602;11.904;2023-03-12T03:01:29;5.13;;;3.33;;
62574;SDS011;53112;45.602;11.904;2023-03-12T03:03:58;4.70;;;2.90;;
62574;SDS011;53112;45.602;11.904;2023-03-12T03:06:25;4.45;;;2.80;;
62574;SDS011;53112;45.602;11.904;2023-03-12T03:08:51;4.18;;;2.80;;
62574;SDS011;53112;45.602;11.904;2023-03-12T03:11:17;3.65;;;2.75;;
62574;SDS011;53112;45.602;11.904;2023-03-12T03:13:49;5.20;;;2.97;;
62574;SDS011;53112;45.602;11.904;2023-03-12T03:16:18;4.65;;;2.90;;
62574;SDS011;53112;45.602;11.904;2023-03-12T03:18:44;5.28;;;2.80;;
62574;SDS011;53112;45.602;11.904;2023-03-12T03:21:11;4.35;;;2.80;;
62574;SDS011;53112;45.602;11.904;2023-03-12T03:23:44;4.90;;;2.80;;
62574;SDS011;53112;45.602;11.904;2023-03-12T03:26:11;5.18;;;3.00;;
62574;SDS011;53112;45.602;11.904;2023-03-12T03:28:38;3.90;;;2.75;;
62574;SDS011;53112;45.602;11.904;2023-03-12T03:31:04;5.65;;;3.17;;
62574;SDS011;53112;45.602;11.904;2023-03-12T03:33:31;4.40;;;3.00;;
62574;SDS011;53112;45.602;11.904;2023-03-12T03:35:59;4.47;;;3.10;;
62574;SDS011;53112;45.602;11.904;2023-03-12T03:38:26;4.70;;;3.05;;
62574;SDS011;53112;45.602;11.904;2023-03-12T03:40:53;3.92;;;2.70;;
62574;SDS011;53112;45.602;11.904;2023-03-12T03:43:19;4.03;;;2.92;;
62574;SDS011;53112;45.602;11.904;2023-03-12T03:45:46;6.00;;;3.13;;
62574;SDS011;53112;45.602;11.904;2023-03-12T03:48:12;5.80;;;3.03;;
62574;SDS011;53112;45.602;11.904;2023-03-12T03:50:39;5.80;;;3.10;;
62574;SDS011;53112;45.602;11.904;2023-03-12T03:53:05;4.78;;;3.10;;
62574;SDS011;53112;45.602;11.904;2023-03-12T03:55:35;4.57;;;3.20;;
62574;SDS011;53112;45.602;11.904;2023-03-12T03:58:02;4.55;;;3.00;;
62574;SDS011;53112;45.602;11.904;2023-03-12T04:00:28;5.78;;;3.40;;
62574;SDS011;53112;45.602;11.904;2023-03-12T04:02:54;4.88;;;3.05;;
62574;SDS011;53112;45.602;11.904;2023-03-12T04:05:20;6.95;;;3.08;;
62574;SDS011;53112;45.602;11.904;2023-03-12T04:07:45;6.10;;;3.20;;
62574;SDS011;53112;45.602;11.904;2023-03-12T04:10:11;5.85;;;2.83;;
62574;SDS011;53112;45.602;11.904;2023-03-12T04:12:38;4.72;;;3.20;;
62574;SDS011;53112;45.602;11.904;2023-03-12T04:15:04;5.40;;;2.92;;
62574;SDS011;53112;45.602;11.904;2023-03-12T04:17:30;4.65;;;2.88;;
62574;SDS011;53112;45.602;11.904;2023-03-12T04:19:55;4.63;;;2.88;;
62574;SDS011;53112;45.602;11.904;2023-03-12T04:22:21;4.10;;;2.60;;
62574;SDS011;53112;45.602;11.904;2023-03-12T04:24:47;5.22;;;3.15;;
62574;SDS011;53112;45.602;11.904;2023-03-12T04:27:13;4.25;;;2.83;;
62574;SDS011;53112;45.602;11.904;2023-03-12T04:29:38;5.28;;;2.92;;
62574;SDS011;53112;45.602;11.904;2023-03-12T04:32:06;5.47;;;2.85;;
62574;SDS011;53112;45.602;11.904;2023-03-12T04:34:32;4.57;;;2.75;;
62574;SDS011;53112;45.602;11.904;2023-03-12T04:36:59;5.03;;;2.83;;
62574;SDS011;53112;45.602;11.904;2023-03-12T04:39:26;4.30;;;2.70;;
62574;SDS011;53112;45.602;11.904;2023-03-12T04:41:52;4.22;;;2.70;;
62574;SDS011;53112;45.602;11.904;2023-03-12T04:44:17;3.92;;;2.75;;
62574;SDS011;53112;45.602;11.904;2023-03-12T04:46:43;4.25;;;2.78;;
62574;SDS011;53112;45.602;11.904;2023-03-12T04:49:09;5.18;;;2.63;;
62574;SDS011;53112;45.602;11.904;2023-03-12T04:51:35;3.80;;;2.80;;
62574;SDS011;53112;45.602;11.904;2023-03-12T04:54:00;4.65;;;2.50;;
62574;SDS011;53112;45.602;11.904;2023-03-12T04:56:26;4.28;;;2.63;;
62574;SDS011;53112;45.602;11.904;2023-03-12T04:58:52;4.35;;;2.97;;
62574;SDS011;53112;45.602;11.904;2023-03-12T05:01:21;3.95;;;2.58;;
62574;SDS011;53112;45.602;11.904;2023-03-12T05:03:54;3.67;;;2.50;;
62574;SDS011;53112;45.602;11.904;2023-03-12T05:06:20;3.92;;;2.70;;
62574;SDS011;53112;45.602;11.904;2023-03-12T05:08:48;3.80;;;2.83;;
62574;SDS011;53112;45.602;11.904;2023-03-12T05:11:14;4.07;;;2.78;;
62574;SDS011;53112;45.602;11.904;2023-03-12T05:13:41;3.65;;;2.70;;
62574;SDS011;53112;45.602;11.904;2023-03-12T05:16:07;5.18;;;2.90;;
62574;SDS011;53112;45.602;11.904;2023-03-12T05:18:34;4.13;;;2.90;;
62574;SDS011;53112;45.602;11.904;2023-03-12T05:21:00;3.53;;;2.60;;
62574;SDS011;53112;45.602;11.904;2023-03-12T05:23:31;3.57;;;2.47;;
62574;SDS011;53112;45.602;11.904;2023-03-12T05:25:58;4.43;;;2.70;;
62574;SDS011;53112;45.602;11.904;2023-03-12T05:28:24;8.15;;;2.90;;
62574;SDS011;53112;45.602;11.904;2023-03-12T05:30:53;4.03;;;2.65;;
62574;SDS011;53112;45.602;11.904;2023-03-12T05:33:20;5.47;;;2.85;;
62574;SDS011;53112;45.602;11.904;2023-03-12T05:35:46;4.90;;;3.20;;
62574;SDS011;53112;45.602;11.904;2023-03-12T05:38:12;3.35;;;2.55;;
62574;SDS011;53112;45.602;11.904;2023-03-12T05:40:38;4.90;;;3.00;;
62574;SDS011;53112;45.602;11.904;2023-03-12T05:43:04;3.58;;;2.50;;
62574;SDS011;53112;45.602;11.904;2023-03-12T05:47:59;5.40;;;2.70;;
62574;SDS011;53112;45.602;11.904;2023-03-12T05:50:25;4.28;;;2.88;;
62574;SDS011;53112;45.602;11.904;2023-03-12T05:52:51;4.57;;;2.80;;
62574;SDS011;53112;45.602;11.904;2023-03-12T05:55:17;3.53;;;2.80;;
62574;SDS011;53112;45.602;11.904;2023-03-12T05:57:43;4.35;;;2.90;;
62574;SDS011;53112;45.602;11.904;2023-03-12T06:00:11;5.85;;;3.15;;
62574;SDS011;53112;45.602;11.904;2023-03-12T06:02:38;4.18;;;2.63;;
62574;SDS011;53112;45.602;11.904;2023-03-12T06:05:04;5.72;;;3.20;;
62574;SDS011;53112;45.602;11.904;2023-03-12T06:07:30;7.35;;;3.30;;
62574;SDS011;53112;45.602;11.904;2023-03-12T06:09:56;4.75;;;3.28;;
62574;SDS011;53112;45.602;11.904;2023-03-12T06:12:24;6.10;;;3.55;;
62574;SDS011;53112;45.602;11.904;2023-03-12T06:14:50;6.30;;;3.88;;
62574;SDS011;53112;45.602;11.904;2023-03-12T06:17:16;5.72;;;3.25;;
62574;SDS011;53112;45.602;11.904;2023-03-12T06:19:42;6.03;;;3.45;;
62574;SDS011;53112;45.602;11.904;2023-03-12T06:22:08;5.35;;;3.47;;
62574;SDS011;53112;45.602;11.904;2023-03-12T06:24:34;5.68;;;3.80;;
62574;SDS011;53112;45.602;11.904;2023-03-12T06:26:59;6.80;;;3.92;;
62574;SDS011;53112;45.602;11.904;2023-03-12T06:29:25;8.30;;;4.03;;
62574;SDS011;53112;45.602;11.904;2023-03-12T06:31:51;6.95;;;4.13;;
62574;SDS011;53112;45.602;11.904;2023-03-12T06:34:17;7.05;;;3.88;;
62574;SDS011;53112;45.602;11.904;2023-03-12T06:36:43;7.00;;;4.13;;
62574;SDS011;53112;45.602;11.904;2023-03-12T06:39:09;6.25;;;4.05;;
62574;SDS011;53112;45.602;11.904;2023-03-12T06:41:35;9.80;;;4.07;;
62574;SDS011;53112;45.602;11.904;2023-03-12T06:44:01;7.65;;;3.83;;
62574;SDS011;53112;45.602;11.904;2023-03-12T06:46:30;6.78;;;4.15;;
62574;SDS011;53112;45.602;11.904;2023-03-12T06:51:26;6.72;;;4.30;;
62574;SDS011;53112;45.602;11.904;2023-03-12T06:53:52;7.30;;;4.43;;
62574;SDS011;53112;45.602;11.904;2023-03-12T06:56:17;7.25;;;4.15;;
62574;SDS011;53112;45.602;11.904;2023-03-12T06:58:43;7.57;;;4.40;;
62574;SDS011;53112;45.602;11.904;2023-03-12T07:01:09;7.93;;;4.18;;
62574;SDS011;53112;45.602;11.904;2023-03-12T07:03:35;6.15;;;3.80;;
62574;SDS011;53112;45.602;11.904;2023-03-12T07:06:01;6.22;;;3.30;;
62574;SDS011;53112;45.602;11.904;2023-03-12T07:08:28;6.60;;;3.58;;
62574;SDS011;53112;45.602;11.904;2023-03-12T07:10:55;5.38;;;3.28;;
62574;SDS011;53112;45.602;11.904;2023-03-12T07:13:22;5.80;;;3.38;;
62574;SDS011;53112;45.602;11.904;2023-03-12T07:15:48;5.20;;;3.38;;
62574;SDS011;53112;45.602;11.904;2023-03-12T07:18:14;5.55;;;3.38;;
62574;SDS011;53112;45.602;11.904;2023-03-12T07:20:41;8.00;;;3.97;;
62574;SDS011;53112;45.602;11.904;2023-03-12T07:23:08;8.80;;;3.95;;
62574;SDS011;53112;45.602;11.904;2023-03-12T07:25:35;7.60;;;3.50;;
62574;SDS011;53112;45.602;11.904;2023-03-12T07:28:02;4.38;;;3.17;;
62574;SDS011;53112;45.602;11.904;2023-03-12T07:30:29;5.15;;;2.90;;
62574;SDS011;53112;45.602;11.904;2023-03-12T07:33:01;5.32;;;3.00;;
62574;SDS011;53112;45.602;11.904;2023-03-12T07:35:31;5.35;;;3.00;;
62574;SDS011;53112;45.602;11.904;2023-03-12T07:37:57;4.40;;;2.83;;
62574;SDS011;53112;45.602;11.904;2023-03-12T07:40:23;4.65;;;3.08;;
62574;SDS011;53112;45.602;11.904;2023-03-12T07:42:49;5.07;;;2.80;;
62574;SDS011;53112;45.602;11.904;2023-03-12T07:45:16;4.38;;;2.75;;
62574;SDS011;53112;45.602;11.904;2023-03-12T07:47:42;4.57;;;2.60;;
62574;SDS011;53112;45.602;11.904;2023-03-12T07:50:08;4.45;;;2.80;;
62574;SDS011;53112;45.602;11.904;2023-03-12T07:52:35;5.53;;;2.90;;
62574;SDS011;53112;45.602;11.904;2023-03-12T07:55:00;6.97;;;3.20;;
62574;SDS011;53112;45.602;11.904;2023-03-12T07:57:26;5.60;;;2.92;;
62574;SDS011;53112;45.602;11.904;2023-03-12T07:59:52;5.85;;;3.40;;
62574;SDS011;53112;45.602;11.904;2023-03-12T08:02:18;6.35;;;3.47;;
62574;SDS011;53112;45.602;11.904;2023-03-12T08:04:44;7.35;;;3.22;;
62574;SDS011;53112;45.602;11.904;2023-03-12T08:07:10;5.95;;;2.88;;
62574;SDS011;53112;45.602;11.904;2023-03-12T08:09:37;4.90;;;2.90;;
62574;SDS011;53112;45.602;11.904;2023-03-12T08:12:03;5.32;;;3.13;;
62574;SDS011;53112;45.602;11.904;2023-03-12T08:14:30;4.70;;;3.15;;
62574;SDS011;53112;45.602;11.904;2023-03-12T08:16:56;5.72;;;3.60;;
62574;SDS011;53112;45.602;11.904;2023-03-12T08:19:23;5.25;;;3.35;;
62574;SDS011;53112;45.602;11.904;2023-03-12T08:21:49;5.57;;;3.30;;
62574;SDS011;53112;45.602;11.904;2023-03-12T08:24:17;5.95;;;3.50;;
62574;SDS011;53112;45.602;11.904;2023-03-12T08:26:44;7.05;;;4.20;;
62574;SDS011;53112;45.602;11.904;2023-03-12T08:29:10;5.95;;;3.50;;
62574;SDS011;53112;45.602;11.904;2023-03-12T08:31:36;5.53;;;3.22;;
62574;SDS011;53112;45.602;11.904;2023-03-12T08:34:02;4.78;;;2.90;;
62574;SDS011;53112;45.602;11.904;2023-03-12T08:36:28;4.45;;;2.80;;
62574;SDS011;53112;45.602;11.904;2023-03-12T08:38:54;4.18;;;2.60;;
62574;SDS011;53112;45.602;11.904;2023-03-12T08:41:20;6.15;;;2.78;;
62574;SDS011;53112;45.602;11.904;2023-03-12T08:43:46;4.38;;;2.83;;
62574;SDS011;53112;45.602;11.904;2023-03-12T08:46:12;5.85;;;2.95;;
62574;SDS011;53112;45.602;11.904;2023-03-12T08:48:38;6.43;;;3.30;;
62574;SDS011;53112;45.602;11.904;2023-03-12T08:51:05;4.80;;;3.03;;
62574;SDS011;53112;45.602;11.904;2023-03-12T08:53:32;4.90;;;2.92;;
62574;SDS011;53112;45.602;11.904;2023-03-12T08:55:59;4.72;;;3.05;;
62574;SDS011;53112;45.602;11.904;2023-03-12T08:58:25;4.90;;;3.00;;
62574;SDS011;53112;45.602;11.904;2023-03-12T09:00:52;4.22;;;2.80;;
62574;SDS011;53112;45.602;11.904;2023-03-12T09:03:18;4.93;;;2.70;;
62574;SDS011;53112;45.602;11.904;2023-03-12T09:05:46;4.88;;;2.88;;
62574;SDS011;53112;45.602;11.904;2023-03-12T09:08:12;4.60;;;3.10;;
62574;SDS011;53112;45.602;11.904;2023-03-12T09:10:39;4.57;;;2.85;;
62574;SDS011;53112;45.602;11.904;2023-03-12T09:13:10;4.75;;;2.83;;
62574;SDS011;53112;45.602;11.904;2023-03-12T09:15:36;4.75;;;2.80;;
62574;SDS011;53112;45.602;11.904;2023-03-12T09:18:02;4.75;;;2.88;;
62574;SDS011;53112;45.602;11.904;2023-03-12T09:20:28;3.25;;;2.53;;
62574;SDS011;53112;45.602;11.904;2023-03-12T09:22:53;3.13;;;2.30;;
62574;SDS011;53112;45.602;11.904;2023-03-12T09:25:19;4.88;;;3.10;;
62574;SDS011;53112;45.602;11.904;2023-03-12T09:27:47;5.40;;;3.00;;
62574;SDS011;53112;45.602;11.904;2023-03-12T09:30:19;5.03;;;2.80;;
62574;SDS011;53112;45.602;11.904;2023-03-12T09:32:46;4.07;;;2.90;;
62574;SDS011;53112;45.602;11.904;2023-03-12T09:35:13;5.05;;;2.70;;
62574;SDS011;53112;45.602;11.904;2023-03-12T09:37:39;4.85;;;2.88;;
62574;SDS011;53112;45.602;11.904;2023-03-12T09:40:06;4.50;;;2.60;;
62574;SDS011;53112;45.602;11.904;2023-03-12T09:45:21;4.03;;;2.40;;
62574;SDS011;53112;45.602;11.904;2023-03-12T09:47:52;5.22;;;2.83;;
62574;SDS011;53112;45.602;11.904;2023-03-12T09:50:27;3.92;;;2.40;;
62574;SDS011;53112;45.602;11.904;2023-03-12T09:53:08;3.42;;;2.60;;
62574;SDS011;53112;45.602;11.904;2023-03-12T09:55:55;4.55;;;2.80;;
62574;SDS011;53112;45.602;11.904;2023-03-12T09:58:32;3.70;;;2.70;;
62574;SDS011;53112;45.602;11.904;2023-03-12T10:01:17;4.20;;;2.50;;
62574;SDS011;53112;45.602;11.904;2023-03-12T10:06:55;7.65;;;3.92;;
62574;SDS011;53112;45.602;11.904;2023-03-12T10:21:18;4.78;;;3.10;;
62574;SDS011;53112;45.602;11.904;2023-03-12T10:27:15;4.55;;;3.03;;
62574;SDS011;53112;45.602;11.904;2023-03-12T10:29:43;5.97;;;3.15;;
62574;SDS011;53112;45.602;11.904;2023-03-12T10:32:14;4.07;;;2.70;;
62574;SDS011;53112;45.602;11.904;2023-03-12T10:34:54;8.27;;;3.70;;
62574;SDS011;53112;45.602;11.904;2023-03-12T10:37:24;5.72;;;3.45;;
62574;SDS011;53112;45.602;11.904;2023-03-12T10:42:31;4.57;;;3.10;;
62574;SDS011;53112;45.602;11.904;2023-03-12T10:52:45;3.83;;;2.53;;
62574;SDS011;53112;45.602;11.904;2023-03-12T10:55:24;4.68;;;2.78;;
62574;SDS011;53112;45.602;11.904;2023-03-12T10:57:54;4.80;;;2.70;;
62574;SDS011;53112;45.602;11.904;2023-03-12T11:02:58;4.38;;;2.60;;
62574;SDS011;53112;45.602;11.904;2023-03-12T11:05:32;4.68;;;2.72;;
62574;SDS011;53112;45.602;11.904;2023-03-12T11:08:26;3.78;;;2.45;;
62574;SDS011;53112;45.602;11.904;2023-03-12T11:10:55;2.97;;;2.45;;
62574;SDS011;53112;45.602;11.904;2023-03-12T11:15:55;4.80;;;2.80;;
62574;SDS011;53112;45.602;11.904;2023-03-12T11:23:42;4.30;;;2.50;;
62574;SDS011;53112;45.602;11.904;2023-03-12T11:28:49;4.80;;;2.70;;
62574;SDS011;53112;45.602;11.904;2023-03-12T11:31:22;4.28;;;2.60;;
62574;SDS011;53112;45.602;11.904;2023-03-12T11:33:53;5.65;;;2.80;;
62574;SDS011;53112;45.602;11.904;2023-03-12T11:41:59;3.08;;;2.55;;
62574;SDS011;53112;45.602;11.904;2023-03-12T11:47:34;3.85;;;2.65;;
62574;SDS011;53112;45.602;11.904;2023-03-12T12:00:20;3.72;;;2.63;;
62574;SDS011;53112;45.602;11.904;2023-03-12T12:05:50;3.22;;;2.50;;
62574;SDS011;53112;45.602;11.904;2023-03-12T12:08:42;3.53;;;2.30;;
62574;SDS011;53112;45.602;11.904;2023-03-12T12:11:33;2.70;;;2.20;;
62574;SDS011;53112;45.602;11.904;2023-03-12T12:14:14;3.58;;;2.60;;
62574;SDS011;53112;45.602;11.904;2023-03-12T12:25:11;2.75;;;2.17;;
62574;SDS011;53112;45.602;11.904;2023-03-12T12:35:53;2.45;;;2.25;;
62574;SDS011;53112;45.602;11.904;2023-03-12T12:41:14;2.92;;;2.40;;
62574;SDS011;53112;45.602;11.904;2023-03-12T12:44:08;3.20;;;2.28;;
62574;SDS011;53112;45.602;11.904;2023-03-12T12:46:35;3.42;;;2.25;;
62574;SDS011;53112;45.602;11.904;2023-03-12T12:51:43;2.95;;;2.35;;
62574;SDS011;53112;45.602;11.904;2023-03-12T13:01:58;4.30;;;2.63;;
62574;SDS011;53112;45.602;11.904;2023-03-12T13:04:31;3.40;;;2.70;;
62574;SDS011;53112;45.602;11.904;2023-03-12T13:09:41;2.50;;;2.30;;
62574;SDS011;53112;45.602;11.904;2023-03-12T13:12:31;3.40;;;2.42;;
62574;SDS011;53112;45.602;11.904;2023-03-12T13:20:19;3.78;;;2.70;;
62574;SDS011;53112;45.602;11.904;2023-03-12T13:23:15;3.42;;;2.67;;
62574;SDS011;53112;45.602;11.904;2023-03-12T13:36:42;3.45;;;2.60;;
62574;SDS011;53112;45.602;11.904;2023-03-12T13:41:41;3.33;;;2.50;;
62574;SDS011;53112;45.602;11.904;2023-03-12T13:55:24;3.80;;;2.53;;
62574;SDS011;53112;45.602;11.904;2023-03-12T13:57:53;4.07;;;2.47;;
62574;SDS011;53112;45.602;11.904;2023-03-12T14:00:38;3.50;;;2.60;;
62574;SDS011;53112;45.602;11.904;2023-03-12T14:03:17;3.95;;;2.30;;
62574;SDS011;53112;45.602;11.904;2023-03-12T14:11:23;3.72;;;2.50;;
62574;SDS011;53112;45.602;11.904;2023-03-12T14:17:05;3.25;;;2.50;;
62574;SDS011;53112;45.602;11.904;2023-03-12T14:22:34;4.35;;;2.63;;
62574;SDS011;53112;45.602;11.904;2023-03-12T14:25:11;3.17;;;2.40;;
62574;SDS011;53112;45.602;11.904;2023-03-12T14:27:44;4.00;;;2.88;;
62574;SDS011;53112;45.602;11.904;2023-03-12T14:33:04;3.63;;;2.65;;
62574;SDS011;53112;45.602;11.904;2023-03-12T14:35:39;2.95;;;2.53;;
62574;SDS011;53112;45.602;11.904;2023-03-12T14:38:15;3.47;;;2.80;;
62574;SDS011;53112;45.602;11.904;2023-03-12T14:43:37;3.90;;;2.80;;
62574;SDS011;53112;45.602;11.904;2023-03-12T14:46:11;3.22;;;2.70;;
62574;SDS011;53112;45.602;11.904;2023-03-12T14:48:42;4.03;;;2.80;;
62574;SDS011;53112;45.602;11.904;2023-03-12T14:51:24;4.35;;;2.95;;
62574;SDS011;53112;45.602;11.904;2023-03-12T14:53:52;4.35;;;3.00;;
62574;SDS011;53112;45.602;11.904;2023-03-12T14:56:26;4.05;;;2.88;;
62574;SDS011;53112;45.602;11.904;2023-03-12T14:58:58;4.55;;;3.40;;
62574;SDS011;53112;45.602;11.904;2023-03-12T15:01:29;4.45;;;2.80;;
62574;SDS011;53112;45.602;11.904;2023-03-12T15:04:00;5.18;;;3.25;;
62574;SDS011;53112;45.602;11.904;2023-03-12T15:09:00;4.87;;;2.77;;
62574;SDS011;53112;45.602;11.904;2023-03-12T15:11:29;4.70;;;3.00;;
62574;SDS011;53112;45.602;11.904;2023-03-12T15:14:00;4.65;;;3.10;;
62574;SDS011;53112;45.602;11.904;2023-03-12T15:16:32;8.50;;;4.07;;
62574;SDS011;53112;45.602;11.904;2023-03-12T15:18:58;11.85;;;5.65;;
62574;SDS011;53112;45.602;11.904;2023-03-12T15:21:26;5.20;;;3.00;;
62574;SDS011;53112;45.602;11.904;2023-03-12T15:23:52;5.75;;;2.80;;
62574;SDS011;53112;45.602;11.904;2023-03-12T15:31:40;4.78;;;2.85;;
62574;SDS011;53112;45.602;11.904;2023-03-12T15:34:11;3.42;;;2.65;;
62574;SDS011;53112;45.602;11.904;2023-03-12T15:36:45;4.95;;;2.58;;
62574;SDS011;53112;45.602;11.904;2023-03-12T15:41:51;4.13;;;2.70;;
62574;SDS011;53112;45.602;11.904;2023-03-12T15:44:19;3.63;;;2.80;;
62574;SDS011;53112;45.602;11.904;2023-03-12T15:46:49;4.50;;;2.50;;
62574;SDS011;53112;45.602;11.904;2023-03-12T15:49:25;2.80;;;2.40;;
62574;SDS011;53112;45.602;11.904;2023-03-12T15:57:29;4.72;;;2.30;;
62574;SDS011;53112;45.602;11.904;2023-03-12T16:00:13;3.53;;;2.30;;
62574;SDS011;53112;45.602;11.904;2023-03-12T16:05:25;2.22;;;1.70;;
62574;SDS011;53112;45.602;11.904;2023-03-12T16:07:55;4.28;;;2.10;;
62574;SDS011;53112;45.602;11.904;2023-03-12T16:10:23;2.33;;;1.95;;
62574;SDS011;53112;45.602;11.904;2023-03-12T16:12:52;2.88;;;2.00;;
62574;SDS011;53112;45.602;11.904;2023-03-12T16:15:29;3.00;;;2.10;;
62574;SDS011;53112;45.602;11.904;2023-03-12T16:17:57;3.33;;;2.20;;
62574;SDS011;53112;45.602;11.904;2023-03-12T16:20:23;3.95;;;2.00;;
62574;SDS011;53112;45.602;11.904;2023-03-12T16:22:49;2.92;;;2.05;;
62574;SDS011;53112;45.602;11.904;2023-03-12T16:25:15;3.67;;;2.05;;
62574;SDS011;53112;45.602;11.904;2023-03-12T16:27:44;3.17;;;2.00;;
62574;SDS011;53112;45.602;11.904;2023-03-12T16:30:27;3.28;;;1.88;;
62574;SDS011;53112;45.602;11.904;2023-03-12T16:32:55;3.35;;;1.90;;
62574;SDS011;53112;45.602;11.904;2023-03-12T16:35:22;2.30;;;1.80;;
62574;SDS011;53112;45.602;11.904;2023-03-12T16:37:48;2.15;;;1.65;;
62574;SDS011;53112;45.602;11.904;2023-03-12T16:40:14;3.58;;;1.80;;
62574;SDS011;53112;45.602;11.904;2023-03-12T16:42:45;2.47;;;1.88;;
62574;SDS011;53112;45.602;11.904;2023-03-12T16:45:14;1.98;;;1.80;;
62574;SDS011;53112;45.602;11.904;2023-03-12T16:47:41;3.70;;;2.00;;
62574;SDS011;53112;45.602;11.904;2023-03-12T16:50:15;2.83;;;2.20;;
62574;SDS011;53112;45.602;11.904;2023-03-12T16:52:44;3.75;;;2.00;;
62574;SDS011;53112;45.602;11.904;2023-03-12T16:55:15;4.05;;;2.50;;
62574;SDS011;53112;45.602;11.904;2023-03-12T16:57:50;5.00;;;2.53;;
62574;SDS011;53112;45.602;11.904;2023-03-12T17:00:22;5.00;;;2.97;;
62574;SDS011;53112;45.602;11.904;2023-03-12T17:02:51;5.40;;;3.13;;
62574;SDS011;53112;45.602;11.904;2023-03-12T17:05:24;5.28;;;3.10;;
62574;SDS011;53112;45.602;11.904;2023-03-12T17:07:51;4.60;;;2.63;;
62574;SDS011;53112;45.602;11.904;2023-03-12T17:10:18;5.35;;;2.80;;
62574;SDS011;53112;45.602;11.904;2023-03-12T17:12:44;6.75;;;3.20;;
62574;SDS011;53112;45.602;11.904;2023-03-12T17:15:12;4.93;;;3.13;;
62574;SDS011;53112;45.602;11.904;2023-03-12T17:17:47;4.38;;;2.60;;
62574;SDS011;53112;45.602;11.904;2023-03-12T17:20:14;5.65;;;3.00;;
62574;SDS011;53112;45.602;11.904;2023-03-12T17:22:42;3.80;;;2.80;;
62574;SDS011;53112;45.602;11.904;2023-03-12T17:25:28;5.82;;;3.40;;
62574;SDS011;53112;45.602;11.904;2023-03-12T17:27:55;12.52;;;6.00;;
62574;SDS011;53112;45.602;11.904;2023-03-12T17:30:22;12.95;;;6.00;;
62574;SDS011;53112;45.602;11.904;2023-03-12T17:32:49;10.88;;;5.38;;
62574;SDS011;53112;45.602;11.904;2023-03-12T17:35:15;10.40;;;5.20;;
62574;SDS011;53112;45.602;11.904;2023-03-12T17:37:42;6.85;;;4.40;;